Time;durP1;ratioP1;P1;durP2;ratioP2;P2;SDS_P1;SDS_P2;PMS_P1;PMS_P2;Temp;Humidity;BMP_temperature;BMP_pressure;BME280_temperature;BME280_humidity;BME280_pressure;Samples;Min_cycle;Max_cycle;Signal;HPM_P1;HPM_P2
2020/12/24 00:00:51;;;;;;;;;;;;;;;;;;2055538;28;44550;-61
2020/12/24 00:01:52;;;;;;;;;;;;;;;;;;2055758;28;44677;-63
2020/12/24 00:02:53;;;;;;;;;;;;;;;;;;2056269;28;44535;-63
2020/12/24 00:03:54;;;;;;;;;;;;;;;;;;2061448;28;44600;-63
2020/12/24 00:04:55;;;;;;;;;;;;;;;;;;2063610;28;46242;-63
2020/12/24 00:05:56;;;;;;;;;;;;;;;;;;2071803;28;45331;-62
2020/12/24 00:06:57;;;;;;;;;;;;;;;;;;2063775;28;46031;-62
2020/12/24 00:07:59;;;;;;;;;;;;;;;;;;2063851;28;44724;-62
2020/12/24 00:09:00;;;;;;;;;;;;;;;;;;2063256;28;43555;-61
2020/12/24 00:10:02;;;;;;;;;;;;;;;;;;2063969;28;46049;-62
2020/12/24 00:11:03;;;;;;;;;;;;;;;;;;2063550;28;44583;-62
2020/12/24 00:12:04;;;;;;;;;;;;;;;;;;2063640;28;44856;-62
2020/12/24 00:13:05;;;;;;;;;;;;;;;;;;2062284;28;43125;-63
2020/12/24 00:14:06;;;;;;;;;;;;;;;;;;2063925;28;46161;-62
2020/12/24 00:15:08;;;;;;;;;;;;;;;;;;2064043;28;44672;-62
2020/12/24 00:16:09;;;;;;;;;;;;;;;;;;2063742;28;45122;-62
2020/12/24 00:17:11;;;;;;;;;;;;;;;;;;2055300;28;45741;-61
2020/12/24 00:18:12;;;;;;;;;;;;;;;;;;2063927;28;44668;-62
2020/12/24 00:19:13;;;;;;;;;;;;;;;;;;2063925;28;46150;-61
2020/12/24 00:20:14;;;;;;;;;;;;;;;;;;2064378;28;46059;-61
2020/12/24 00:21:15;;;;;;;;;;;;;;;;;;2063928;28;44861;-61
2020/12/24 00:22:16;;;;;;;;;;;;;;;;;;2064725;28;47210;-61
2020/12/24 00:23:17;;;;;;;;;;;;;;;;;;2064237;28;43176;-62
2020/12/24 00:24:18;;;;;;;;;;;;;;;;;;2063916;28;43323;-62
2020/12/24 00:25:19;;;;;;;;;;;;;;;;;;2063547;28;44343;-62
2020/12/24 00:26:20;;;;;;;;;;;;;;;;;;2063632;28;44130;-62
2020/12/24 00:27:21;;;;;;;;;;;;;;;;;;2063833;28;44366;-62
2020/12/24 00:28:22;;;;;;;;;;;;;;;;;;2064479;28;43177;-63
2020/12/24 00:29:23;;;;;;;;;;;;;;;;;;2063769;28;44469;-63
2020/12/24 00:30:24;;;;;;;;;;;;;;;;;;2064409;28;44503;-63
2020/12/24 00:31:25;;;;;;;;;;;;;;;;;;2063461;28;44461;-63
2020/12/24 00:32:26;;;;;;;;;;;;;;;;;;2063549;28;44424;-63
2020/12/24 00:33:27;;;;;;;;;;;;;;;;;;2062173;28;43175;-63
2020/12/24 00:34:28;;;;;;;;;;;;;;;;;;2055629;28;43301;-63
2020/12/24 00:35:29;;;;;;;;;;;;;;;;;;2055846;28;43438;-63
2020/12/24 00:36:30;;;;;;;;;;;;;;;;;;2055493;28;42952;-63
2020/12/24 00:37:31;;;;;;;;;;;;;;;;;;2056009;28;42998;-63
2020/12/24 00:38:32;;;;;;;;;;;;;;;;;;2056170;28;44286;-63
2020/12/24 00:39:33;;;;;;;;;;;;;;;;;;2055958;28;43295;-63
2020/12/24 00:40:34;;;;;;;;;;;;;;;;;;2055931;28;43009;-63
2020/12/24 00:41:36;;;;;;;;;;;;;;;;;;2055919;28;43173;-63
2020/12/24 00:42:36;;;;;;;;;;;;;;;;;;2055961;28;44176;-63
2020/12/24 00:43:37;;;;;;;;;;;;;;;;;;2056526;28;44599;-63
2020/12/24 00:44:39;;;;;;;;;;;;;;;;;;2055776;28;44142;-62
2020/12/24 00:45:40;;;;;;;;;;;;;;;;;;2056181;28;47441;-63
2020/12/24 00:46:41;;;;;;;;;;;;;;;;;;2055995;28;44385;-62
2020/12/24 00:47:42;;;;;;;;;;;;;;;;;;2055489;28;45620;-62
2020/12/24 00:48:43;;;;;;;;;;;;;;;;;;2055435;28;45385;-62
2020/12/24 00:49:44;;;;;;;;;;;;;;;;;;2056122;28;45584;-62
2020/12/24 00:50:45;;;;;;;;;;;;;;;;;;2055919;28;45654;-62
2020/12/24 00:51:46;;;;;;;;;;;;;;;;;;2055374;28;44416;-62
2020/12/24 00:52:47;;;;;;;;;;;;;;;;;;2055382;28;45701;-62
2020/12/24 00:53:48;;;;;;;;;;;;;;;;;;2056147;28;45035;-63
2020/12/24 00:54:49;;;;;;;;;;;;;;;;;;2056038;28;44272;-64
2020/12/24 00:55:50;;;;;;;;;;;;;;;;;;2055985;28;45670;-64
2020/12/24 00:56:51;;;;;;;;;;;;;;;;;;2055083;28;44291;-63
2020/12/24 00:57:52;;;;;;;;;;;;;;;;;;2055582;28;45565;-64
2020/12/24 00:58:53;;;;;;;;;;;;;;;;;;2055878;28;43982;-63
2020/12/24 00:59:54;;;;;;;;;;;;;;;;;;2055929;28;44469;-64
2020/12/24 01:00:56;;;;;;;;;;;;;;;;;;2055105;28;45600;-63
2020/12/24 01:01:57;;;;;;;;;;;;;;;;;;2055495;28;43953;-63
2020/12/24 01:02:58;;;;;;;;;;;;;;;;;;2055147;28;45638;-63
2020/12/24 01:03:59;;;;;;;;;;;;;;;;;;2055585;28;44220;-63
2020/12/24 01:05:00;;;;;;;;;;;;;;;;;;2055622;28;44428;-63
2020/12/24 01:06:01;;;;;;;;;;;;;;;;;;2056151;28;44993;-64
2020/12/24 01:07:02;;;;;;;;;;;;;;;;;;2057035;28;44738;-64
2020/12/24 01:08:03;;;;;;;;;;;;;;;;;;2064293;28;43219;-65
2020/12/24 01:09:07;;;;;;;;;;;;;;;;;;2063243;28;44573;-65
2020/12/24 01:10:08;;;;;;;;;;;;;;;;;;2063652;28;44881;-64
2020/12/24 01:11:09;;;;;;;;;;;;;;;;;;2063784;28;46022;-62
2020/12/24 01:12:10;;;;;;;;;;;;;;;;;;2063438;28;44546;-62
2020/12/24 01:13:11;;;;;;;;;;;;;;;;;;2055153;28;45907;-62
2020/12/24 01:14:12;;;;;;;;;;;;;;;;;;2055599;28;47152;-62
2020/12/24 01:15:14;;;;;;;;;;;;;;;;;;2055220;28;42818;-62
2020/12/24 01:16:15;;;;;;;;;;;;;;;;;;2063958;28;44012;-62
2020/12/24 01:17:30;;;;;;;;;;;;;;;;;;2064888;28;44854;-62
2020/12/24 01:18:31;;;;;;;;;;;;;;;;;;2065042;28;44572;-62
2020/12/24 01:19:32;;;;;;;;;;;;;;;;;;2064168;28;44454;-62
2020/12/24 01:20:33;;;;;;;;;;;;;;;;;;2064023;28;46101;-62
2020/12/24 01:21:34;;;;;;;;;;;;;;;;;;2063867;28;44718;-62
2020/12/24 01:22:35;;;;;;;;;;;;;;;;;;2064019;28;43756;-62
2020/12/24 01:23:36;;;;;;;;;;;;;;;;;;2062946;28;44676;-62
2020/12/24 01:24:37;;;;;;;;;;;;;;;;;;2054726;28;44735;-63
2020/12/24 01:25:38;;;;;;;;;;;;;;;;;;2063137;28;43420;-63
2020/12/24 01:26:49;;;;;;;;;;;;;;;;;;2063417;28;46643;-63
2020/12/24 01:27:50;;;;;;;;;;;;;;;;;;2063841;28;43311;-63
2020/12/24 01:28:51;;;;;;;;;;;;;;;;;;2064025;28;43164;-63
2020/12/24 01:29:52;;;;;;;;;;;;;;;;;;2062934;28;43298;-63
2020/12/24 01:30:53;;;;;;;;;;;;;;;;;;2063424;28;44496;-64
2020/12/24 01:31:54;;;;;;;;;;;;;;;;;;2063711;28;43324;-64
2020/12/24 01:32:55;;;;;;;;;;;;;;;;;;2063427;28;44910;-63
2020/12/24 01:33:56;;;;;;;;;;;;;;;;;;2049346;28;44462;-63
2020/12/24 01:34:57;;;;;;;;;;;;;;;;;;2055218;28;43242;-62
2020/12/24 01:35:59;;;;;;;;;;;;;;;;;;2055171;28;44448;-62
2020/12/24 01:37:01;;;;;;;;;;;;;;;;;;2055091;28;44127;-62
2020/12/24 01:38:02;;;;;;;;;;;;;;;;;;2055818;28;44373;-63
2020/12/24 01:39:10;;;;;;;;;;;;;;;;;;2055002;28;44906;-62
2020/12/24 01:40:11;;;;;;;;;;;;;;;;;;2055581;28;41339;-63
2020/12/24 01:41:12;;;;;;;;;;;;;;;;;;2055575;28;44578;-62
2020/12/24 01:42:14;;;;;;;;;;;;;;;;;;2055609;28;43199;-62
2020/12/24 01:43:15;;;;;;;;;;;;;;;;;;2055783;28;44289;-63
2020/12/24 01:44:16;;;;;;;;;;;;;;;;;;2055839;28;43403;-62
2020/12/24 01:45:17;;;;;;;;;;;;;;;;;;2055616;28;44647;-62
2020/12/24 01:46:18;;;;;;;;;;;;;;;;;;2055805;28;43311;-62
2020/12/24 01:47:19;;;;;;;;;;;;;;;;;;2054788;28;44294;-62
2020/12/24 01:48:20;;;;;;;;;;;;;;;;;;2055092;28;44126;-62
2020/12/24 01:49:21;;;;;;;;;;;;;;;;;;2055757;28;44465;-62
2020/12/24 01:50:22;;;;;;;;;;;;;;;;;;2055887;28;44280;-62
2020/12/24 01:51:25;;;;;;;;;;;;;;;;;;2055478;28;44384;-62
2020/12/24 01:52:32;;;;;;;;;;;;;;;;;;2055184;28;46028;-62
2020/12/24 01:53:33;;;;;;;;;;;;;;;;;;2054897;28;44284;-62
2020/12/24 01:54:34;;;;;;;;;;;;;;;;;;2055141;28;45555;-62
2020/12/24 01:55:35;;;;;;;;;;;;;;;;;;2055566;28;44121;-62
2020/12/24 01:56:36;;;;;;;;;;;;;;;;;;2055827;28;45600;-61
2020/12/24 01:57:38;;;;;;;;;;;;;;;;;;2055519;28;44392;-62
2020/12/24 01:58:40;;;;;;;;;;;;;;;;;;2055704;28;45597;-62
2020/12/24 01:59:40;;;;;;;;;;;;;;;;;;2055602;28;42497;-62
2020/12/24 02:00:42;;;;;;;;;;;;;;;;;;2055773;28;44396;-62
2020/12/24 02:01:50;;;;;;;;;;;;;;;;;;2054775;28;44373;-62
2020/12/24 02:02:51;;;;;;;;;;;;;;;;;;2055202;28;45558;-63
2020/12/24 02:03:52;;;;;;;;;;;;;;;;;;2056084;28;44084;-62
2020/12/24 02:04:53;;;;;;;;;;;;;;;;;;2055800;28;45652;-62
2020/12/24 02:05:56;;;;;;;;;;;;;;;;;;2055260;28;44419;-62
2020/12/24 02:06:57;;;;;;;;;;;;;;;;;;2054909;28;45674;-62
2020/12/24 02:07:58;;;;;;;;;;;;;;;;;;2054928;28;44378;-63
2020/12/24 02:08:59;;;;;;;;;;;;;;;;;;2054950;28;44456;-63
2020/12/24 02:10:01;;;;;;;;;;;;;;;;;;2055682;28;46537;-62
2020/12/24 02:11:02;;;;;;;;;;;;;;;;;;2055784;28;44287;-63
2020/12/24 02:12:03;;;;;;;;;;;;;;;;;;2055103;28;44936;-63
2020/12/24 02:13:04;;;;;;;;;;;;;;;;;;2055868;28;44569;-63
2020/12/24 02:14:05;;;;;;;;;;;;;;;;;;2055806;28;44823;-63
2020/12/24 02:15:06;;;;;;;;;;;;;;;;;;2055833;28;46135;-64
2020/12/24 02:16:07;;;;;;;;;;;;;;;;;;2055718;28;44836;-63
2020/12/24 02:17:09;;;;;;;;;;;;;;;;;;2055800;28;44685;-63
2020/12/24 02:18:10;;;;;;;;;;;;;;;;;;2055441;28;46043;-63
2020/12/24 02:19:11;;;;;;;;;;;;;;;;;;2055416;28;44879;-63
2020/12/24 02:20:12;;;;;;;;;;;;;;;;;;2055363;28;43205;-63
2020/12/24 02:21:13;;;;;;;;;;;;;;;;;;2055504;28;43314;-63
2020/12/24 02:22:14;;;;;;;;;;;;;;;;;;2054933;28;45854;-63
2020/12/24 02:23:15;;;;;;;;;;;;;;;;;;2055036;28;46153;-62
2020/12/24 02:24:16;;;;;;;;;;;;;;;;;;2055487;28;43308;-63
2020/12/24 02:25:17;;;;;;;;;;;;;;;;;;2055607;28;46148;-62
2020/12/24 02:26:18;;;;;;;;;;;;;;;;;;2055378;28;44858;-62
2020/12/24 02:27:19;;;;;;;;;;;;;;;;;;2055368;28;46089;-62
2020/12/24 02:28:20;;;;;;;;;;;;;;;;;;2054886;28;44451;-63
2020/12/24 02:29:21;;;;;;;;;;;;;;;;;;2054656;28;46069;-63
2020/12/24 02:30:22;;;;;;;;;;;;;;;;;;2055457;28;46138;-64
2020/12/24 02:31:23;;;;;;;;;;;;;;;;;;2055650;28;44432;-63
2020/12/24 02:32:24;;;;;;;;;;;;;;;;;;2054659;28;46035;-63
2020/12/24 02:33:25;;;;;;;;;;;;;;;;;;2055240;28;45760;-63
2020/12/24 02:34:26;;;;;;;;;;;;;;;;;;2062857;28;44561;-63
2020/12/24 02:35:27;;;;;;;;;;;;;;;;;;2055773;28;44407;-63
2020/12/24 02:36:31;;;;;;;;;;;;;;;;;;2056066;28;43247;-64
2020/12/24 02:37:32;;;;;;;;;;;;;;;;;;2056071;28;42994;-63
2020/12/24 02:38:33;;;;;;;;;;;;;;;;;;2055933;28;43324;-63
2020/12/24 02:39:35;;;;;;;;;;;;;;;;;;2056486;28;44242;-63
2020/12/24 02:40:36;;;;;;;;;;;;;;;;;;2056919;28;43470;-63
2020/12/24 02:41:37;;;;;;;;;;;;;;;;;;2056385;28;44562;-63
2020/12/24 02:42:38;;;;;;;;;;;;;;;;;;2056799;28;44596;-63
2020/12/24 02:43:39;;;;;;;;;;;;;;;;;;2056587;28;46993;-64
2020/12/24 02:44:40;;;;;;;;;;;;;;;;;;2056707;28;44234;-62
2020/12/24 02:45:41;;;;;;;;;;;;;;;;;;2056084;28;43265;-62
2020/12/24 02:46:42;;;;;;;;;;;;;;;;;;2056195;28;44352;-63
2020/12/24 02:47:44;;;;;;;;;;;;;;;;;;2055999;28;43315;-62
2020/12/24 02:48:45;;;;;;;;;;;;;;;;;;2056633;28;43408;-63
2020/12/24 02:49:45;;;;;;;;;;;;;;;;;;2055723;28;44553;-64
2020/12/24 02:50:46;;;;;;;;;;;;;;;;;;2056239;28;41237;-63
2020/12/24 02:51:47;;;;;;;;;;;;;;;;;;2055843;28;41688;-63
2020/12/24 02:52:48;;;;;;;;;;;;;;;;;;2056777;28;42878;-63
2020/12/24 02:53:49;;;;;;;;;;;;;;;;;;2055892;28;44293;-63
2020/12/24 02:54:51;;;;;;;;;;;;;;;;;;2056553;28;43592;-63
2020/12/24 02:55:52;;;;;;;;;;;;;;;;;;2055944;28;44300;-63
2020/12/24 02:56:53;;;;;;;;;;;;;;;;;;2056077;28;44123;-64
2020/12/24 02:57:54;;;;;;;;;;;;;;;;;;2064017;28;45298;-64
2020/12/24 02:58:55;;;;;;;;;;;;;;;;;;2056276;28;42554;-63
2020/12/24 02:59:56;;;;;;;;;;;;;;;;;;2055608;28;44358;-64
2020/12/24 03:00:57;;;;;;;;;;;;;;;;;;2056612;28;44450;-64
2020/12/24 03:01:58;;;;;;;;;;;;;;;;;;2056577;28;44396;-63
2020/12/24 03:02:59;;;;;;;;;;;;;;;;;;2056837;28;44372;-63
2020/12/24 03:04:00;;;;;;;;;;;;;;;;;;2056613;28;44401;-63
2020/12/24 03:05:02;;;;;;;;;;;;;;;;;;2056656;28;45576;-63
2020/12/24 03:06:03;;;;;;;;;;;;;;;;;;2056929;28;44167;-63
2020/12/24 03:07:04;;;;;;;;;;;;;;;;;;2060159;28;44252;-63
2020/12/24 03:08:05;;;;;;;;;;;;;;;;;;2106570;28;44118;-63
2020/12/24 03:09:06;;;;;;;;;;;;;;;;;;2107157;28;43121;-62
2020/12/24 03:10:08;;;;;;;;;;;;;;;;;;2107084;28;45531;-63
2020/12/24 03:11:09;;;;;;;;;;;;;;;;;;2107216;28;45389;-63
2020/12/24 03:12:11;;;;;;;;;;;;;;;;;;2106261;28;45774;-63
2020/12/24 03:13:12;;;;;;;;;;;;;;;;;;2106623;28;43139;-63
2020/12/24 03:14:13;;;;;;;;;;;;;;;;;;2106106;28;44256;-63
2020/12/24 03:15:14;;;;;;;;;;;;;;;;;;2106261;28;45585;-62
2020/12/24 03:16:15;;;;;;;;;;;;;;;;;;2106565;28;45611;-63
2020/12/24 03:17:16;;;;;;;;;;;;;;;;;;2107061;28;44849;-62
2020/12/24 03:18:17;;;;;;;;;;;;;;;;;;2107097;28;43275;-62
2020/12/24 03:19:18;;;;;;;;;;;;;;;;;;2107103;28;44734;-62
2020/12/24 03:20:20;;;;;;;;;;;;;;;;;;2107039;28;44107;-62
2020/12/24 03:21:22;;;;;;;;;;;;;;;;;;2107527;28;45833;-62
2020/12/24 03:22:23;;;;;;;;;;;;;;;;;;2108451;28;44729;-63
2020/12/24 03:23:24;;;;;;;;;;;;;;;;;;2107959;28;46047;-63
2020/12/24 03:24:25;;;;;;;;;;;;;;;;;;2106540;28;44840;-63
2020/12/24 03:25:26;;;;;;;;;;;;;;;;;;2106576;28;46146;-62
2020/12/24 03:26:27;;;;;;;;;;;;;;;;;;2106520;28;44751;-63
2020/12/24 03:27:28;;;;;;;;;;;;;;;;;;2106957;28;45868;-64
2020/12/24 03:28:29;;;;;;;;;;;;;;;;;;2107188;28;44861;-64
2020/12/24 03:29:30;;;;;;;;;;;;;;;;;;2106778;28;45705;-63
2020/12/24 03:30:31;;;;;;;;;;;;;;;;;;2106489;28;44761;-62
2020/12/24 03:31:32;;;;;;;;;;;;;;;;;;2106322;28;45796;-62
2020/12/24 03:32:33;;;;;;;;;;;;;;;;;;2107068;28;46145;-62
2020/12/24 03:33:34;;;;;;;;;;;;;;;;;;2090797;28;46466;-63
2020/12/24 03:34:35;;;;;;;;;;;;;;;;;;2064028;28;44854;-62
2020/12/24 03:35:36;;;;;;;;;;;;;;;;;;2064341;28;44865;-63
2020/12/24 03:36:37;;;;;;;;;;;;;;;;;;2064512;28;46139;-63
2020/12/24 03:37:38;;;;;;;;;;;;;;;;;;2064180;28;43855;-63
2020/12/24 03:38:39;;;;;;;;;;;;;;;;;;2064949;28;44884;-63
2020/12/24 03:39:40;;;;;;;;;;;;;;;;;;2063503;28;44358;-64
2020/12/24 03:40:41;;;;;;;;;;;;;;;;;;2063757;28;44009;-63
2020/12/24 03:41:42;;;;;;;;;;;;;;;;;;2064000;28;44574;-64
2020/12/24 03:42:43;;;;;;;;;;;;;;;;;;2064647;28;44597;-64
2020/12/24 03:43:44;;;;;;;;;;;;;;;;;;2063531;28;44619;-64
2020/12/24 03:44:45;;;;;;;;;;;;;;;;;;2063882;28;43285;-63
2020/12/24 03:45:46;;;;;;;;;;;;;;;;;;2063744;28;44485;-63
2020/12/24 03:46:47;;;;;;;;;;;;;;;;;;2064461;28;42066;-63
2020/12/24 03:47:48;;;;;;;;;;;;;;;;;;2064097;28;41556;-63
2020/12/24 03:49:02;;;;;;;;;;;;;;;;;;2064337;28;43364;-62
2020/12/24 03:50:04;;;;;;;;;;;;;;;;;;2064481;28;41385;-62
2020/12/24 03:51:05;;;;;;;;;;;;;;;;;;2064307;28;44237;-63
2020/12/24 03:52:06;;;;;;;;;;;;;;;;;;2064153;28;41723;-62
2020/12/24 03:53:07;;;;;;;;;;;;;;;;;;2064578;28;43183;-63
2020/12/24 03:54:08;;;;;;;;;;;;;;;;;;2064278;28;43353;-63
2020/12/24 03:55:09;;;;;;;;;;;;;;;;;;2064475;28;43296;-63
2020/12/24 03:56:12;;;;;;;;;;;;;;;;;;2064039;28;44798;-63
2020/12/24 03:57:13;;;;;;;;;;;;;;;;;;2063766;28;41528;-62
2020/12/24 03:58:14;;;;;;;;;;;;;;;;;;2063694;28;44128;-62
2020/12/24 03:59:15;;;;;;;;;;;;;;;;;;2063692;28;43336;-63
2020/12/24 04:00:16;;;;;;;;;;;;;;;;;;2064605;28;43014;-63
2020/12/24 04:01:17;;;;;;;;;;;;;;;;;;2064119;28;46077;-63
2020/12/24 04:02:18;;;;;;;;;;;;;;;;;;2064193;28;43962;-63
2020/12/24 04:03:19;;;;;;;;;;;;;;;;;;2064493;28;44126;-63
2020/12/24 04:04:20;;;;;;;;;;;;;;;;;;2064245;28;45453;-63
2020/12/24 04:05:21;;;;;;;;;;;;;;;;;;2064411;28;44430;-63
2020/12/24 04:06:22;;;;;;;;;;;;;;;;;;2064155;28;45575;-62
2020/12/24 04:07:23;;;;;;;;;;;;;;;;;;2064496;28;44298;-62
2020/12/24 04:08:24;;;;;;;;;;;;;;;;;;2064052;28;45658;-63
2020/12/24 04:09:25;;;;;;;;;;;;;;;;;;2064255;28;46800;-63
2020/12/24 04:10:26;;;;;;;;;;;;;;;;;;2063695;28;45724;-63
2020/12/24 04:11:27;;;;;;;;;;;;;;;;;;2063631;28;44054;-63
2020/12/24 04:12:28;;;;;;;;;;;;;;;;;;2064197;28;45591;-63
2020/12/24 04:13:29;;;;;;;;;;;;;;;;;;2064480;28;44407;-63
2020/12/24 04:14:30;;;;;;;;;;;;;;;;;;2063561;28;44161;-63
2020/12/24 04:15:31;;;;;;;;;;;;;;;;;;2063795;28;45464;-63
2020/12/24 04:16:32;;;;;;;;;;;;;;;;;;2064310;28;45495;-63
2020/12/24 04:17:33;;;;;;;;;;;;;;;;;;2064325;28;44174;-63
2020/12/24 04:18:34;;;;;;;;;;;;;;;;;;2064390;28;45613;-63
2020/12/24 04:19:35;;;;;;;;;;;;;;;;;;2064126;28;45479;-63
2020/12/24 04:20:36;;;;;;;;;;;;;;;;;;2063539;28;45600;-63
2020/12/24 04:21:37;;;;;;;;;;;;;;;;;;2063885;28;44262;-63
2020/12/24 04:22:38;;;;;;;;;;;;;;;;;;2064446;28;43846;-63
2020/12/24 04:23:39;;;;;;;;;;;;;;;;;;2064427;28;43541;-63
2020/12/24 04:24:41;;;;;;;;;;;;;;;;;;2064317;28;46066;-62
2020/12/24 04:25:42;;;;;;;;;;;;;;;;;;2063714;28;46958;-63
2020/12/24 04:26:43;;;;;;;;;;;;;;;;;;2063952;28;44056;-63
2020/12/24 04:27:44;;;;;;;;;;;;;;;;;;2064036;28;44844;-63
2020/12/24 04:28:46;;;;;;;;;;;;;;;;;;2064357;28;44710;-62
2020/12/24 04:29:47;;;;;;;;;;;;;;;;;;2064058;28;44716;-63
2020/12/24 04:30:48;;;;;;;;;;;;;;;;;;2064372;28;45694;-63
2020/12/24 04:31:49;;;;;;;;;;;;;;;;;;2063880;28;45776;-63
2020/12/24 04:32:50;;;;;;;;;;;;;;;;;;2064400;28;46193;-63
2020/12/24 04:33:51;;;;;;;;;;;;;;;;;;2059062;28;44738;-63
2020/12/24 04:34:52;;;;;;;;;;;;;;;;;;2056501;28;44762;-63
2020/12/24 04:35:53;;;;;;;;;;;;;;;;;;2056029;28;46170;-62
2020/12/24 04:36:54;;;;;;;;;;;;;;;;;;2055427;28;46118;-63
2020/12/24 04:37:55;;;;;;;;;;;;;;;;;;2055448;28;44879;-63
2020/12/24 04:38:56;;;;;;;;;;;;;;;;;;2055709;28;46178;-63
2020/12/24 04:39:57;;;;;;;;;;;;;;;;;;2055747;28;44847;-63
2020/12/24 04:40:58;;;;;;;;;;;;;;;;;;2055533;28;44219;-63
2020/12/24 04:41:59;;;;;;;;;;;;;;;;;;2054933;28;45928;-62
2020/12/24 04:43:01;;;;;;;;;;;;;;;;;;2056233;28;45755;-62
2020/12/24 04:44:03;;;;;;;;;;;;;;;;;;2056395;28;45754;-62
2020/12/24 04:45:05;;;;;;;;;;;;;;;;;;2056185;28;43013;-62
2020/12/24 04:46:06;;;;;;;;;;;;;;;;;;2055311;28;42751;-62
2020/12/24 04:47:08;;;;;;;;;;;;;;;;;;2055420;28;43121;-62
2020/12/24 04:48:09;;;;;;;;;;;;;;;;;;2055455;28;43180;-62
2020/12/24 04:49:10;;;;;;;;;;;;;;;;;;2055970;28;44433;-62
2020/12/24 04:50:13;;;;;;;;;;;;;;;;;;2056034;28;41608;-63
2020/12/24 04:51:15;;;;;;;;;;;;;;;;;;2056031;28;44578;-62
2020/12/24 04:52:16;;;;;;;;;;;;;;;;;;2055110;28;44116;-62
2020/12/24 04:53:18;;;;;;;;;;;;;;;;;;2055617;28;44376;-62
2020/12/24 04:54:19;;;;;;;;;;;;;;;;;;2055726;28;42981;-62
2020/12/24 04:55:20;;;;;;;;;;;;;;;;;;2056082;28;43282;-63
2020/12/24 04:56:21;;;;;;;;;;;;;;;;;;2055329;28;43191;-62
2020/12/24 04:57:22;;;;;;;;;;;;;;;;;;2055389;28;43168;-62
2020/12/24 04:58:24;;;;;;;;;;;;;;;;;;2055997;28;44520;-63
2020/12/24 04:59:25;;;;;;;;;;;;;;;;;;2055135;28;44095;-63
2020/12/24 05:00:26;;;;;;;;;;;;;;;;;;2055917;28;43322;-63
2020/12/24 05:01:27;;;;;;;;;;;;;;;;;;2056130;28;44590;-63
2020/12/24 05:02:28;;;;;;;;;;;;;;;;;;2055961;28;44289;-63
2020/12/24 05:03:29;;;;;;;;;;;;;;;;;;2055595;28;42695;-63
2020/12/24 05:04:31;;;;;;;;;;;;;;;;;;2055321;28;42434;-63
2020/12/24 05:05:33;;;;;;;;;;;;;;;;;;2055865;28;44698;-64
2020/12/24 05:06:34;;;;;;;;;;;;;;;;;;2056140;28;45006;-63
2020/12/24 05:07:35;;;;;;;;;;;;;;;;;;2061216;28;44104;-63
2020/12/24 05:08:37;;;;;;;;;;;;;;;;;;2064117;28;44411;-63
2020/12/24 05:09:38;;;;;;;;;;;;;;;;;;2064055;28;44414;-63
2020/12/24 05:10:39;;;;;;;;;;;;;;;;;;2063444;28;44409;-63
2020/12/24 05:11:43;;;;;;;;;;;;;;;;;;2063317;28;45684;-63
2020/12/24 05:12:44;;;;;;;;;;;;;;;;;;2063896;28;45596;-62
2020/12/24 05:13:45;;;;;;;;;;;;;;;;;;2063594;28;43126;-63
2020/12/24 05:14:46;;;;;;;;;;;;;;;;;;2055366;28;44262;-63
2020/12/24 05:15:51;;;;;;;;;;;;;;;;;;2063473;28;42811;-63
2020/12/24 05:17:05;;;;;;;;;;;;;;;;;;2063671;28;45671;-63
2020/12/24 05:18:14;;;;;;;;;;;;;;;;;;2064212;28;45661;-63
2020/12/24 05:19:15;;;;;;;;;;;;;;;;;;2063668;28;45703;-64
2020/12/24 05:20:16;;;;;;;;;;;;;;;;;;2063765;28;46033;-65
2020/12/24 05:21:31;;;;;;;;;;;;;;;;;;2055039;28;44277;-65
2020/12/24 05:22:32;;;;;;;;;;;;;;;;;;2063631;28;45738;-65
2020/12/24 05:23:33;;;;;;;;;;;;;;;;;;2055320;28;43445;-65
2020/12/24 05:24:34;;;;;;;;;;;;;;;;;;2063513;28;44289;-63
2020/12/24 05:25:35;;;;;;;;;;;;;;;;;;2064089;28;43938;-62
2020/12/24 05:26:36;;;;;;;;;;;;;;;;;;2064159;28;45749;-62
2020/12/24 05:27:38;;;;;;;;;;;;;;;;;;2063331;28;45660;-63
2020/12/24 05:28:39;;;;;;;;;;;;;;;;;;2064024;28;44730;-63
2020/12/24 05:29:41;;;;;;;;;;;;;;;;;;2064858;28;46231;-62
2020/12/24 05:30:42;;;;;;;;;;;;;;;;;;2064988;28;44872;-63
2020/12/24 05:31:43;;;;;;;;;;;;;;;;;;2063556;28;46038;-62
2020/12/24 05:32:44;;;;;;;;;;;;;;;;;;2063423;28;44836;-62
2020/12/24 05:33:51;;;;;;;;;;;;;;;;;;2058547;28;45978;-62
2020/12/24 05:35:21;;;;;;;;;;;;;;;;;;2055300;28;45839;-62
2020/12/24 05:36:22;;;;;;;;;;;;;;;;;;2055006;28;44380;-63
2020/12/24 05:37:24;;;;;;;;;;;;;;;;;;2055611;28;44858;-63
2020/12/24 05:38:34;;;;;;;;;;;;;;;;;;2055510;28;46163;-62
2020/12/24 05:39:35;;;;;;;;;;;;;;;;;;2055680;28;45844;-62
2020/12/24 05:40:38;;;;;;;;;;;;;;;;;;2055459;28;44563;-62
2020/12/24 05:41:39;;;;;;;;;;;;;;;;;;2054929;28;44828;-62
2020/12/24 05:42:49;;;;;;;;;;;;;;;;;;2055095;28;43744;-62
2020/12/24 05:43:54;;;;;;;;;;;;;;;;;;2055751;28;46148;-62
2020/12/24 05:44:55;;;;;;;;;;;;;;;;;;2055433;28;45972;-61
2020/12/24 05:46:04;;;;;;;;;;;;;;;;;;2055873;28;44854;-62
2020/12/24 05:47:05;;;;;;;;;;;;;;;;;;2054962;28;44749;-62
2020/12/24 05:48:10;;;;;;;;;;;;;;;;;;2055130;28;46136;-62
2020/12/24 05:49:18;;;;;;;;;;;;;;;;;;2055588;28;45737;-63
2020/12/24 05:50:30;;;;;;;;;;;;;;;;;;2055527;28;45898;-64
2020/12/24 05:51:31;;;;;;;;;;;;;;;;;;2055506;28;43406;-63
2020/12/24 05:52:32;;;;;;;;;;;;;;;;;;2054825;28;44291;-64
2020/12/24 05:53:33;;;;;;;;;;;;;;;;;;2055313;28;44089;-64
2020/12/24 05:54:34;;;;;;;;;;;;;;;;;;2054777;28;43172;-63
2020/12/24 05:55:36;;;;;;;;;;;;;;;;;;2055612;28;44305;-63
2020/12/24 05:56:38;;;;;;;;;;;;;;;;;;2055524;28;44601;-63
2020/12/24 05:57:40;;;;;;;;;;;;;;;;;;2055654;28;43057;-63
2020/12/24 05:58:41;;;;;;;;;;;;;;;;;;2055354;28;44177;-63
2020/12/24 05:59:42;;;;;;;;;;;;;;;;;;2054968;28;44236;-62
2020/12/24 06:00:46;;;;;;;;;;;;;;;;;;2054736;28;40249;-63
2020/12/24 06:02:06;;;;;;;;;;;;;;;;;;2055732;28;44574;-63
2020/12/24 06:03:07;;;;;;;;;;;;;;;;;;2054759;28;43013;-63
2020/12/24 06:04:09;;;;;;;;;;;;;;;;;;2055269;28;41920;-63
2020/12/24 06:05:12;;;;;;;;;;;;;;;;;;2055396;28;43303;-63
2020/12/24 06:06:17;;;;;;;;;;;;;;;;;;2055754;28;45477;-63
2020/12/24 06:07:18;;;;;;;;;;;;;;;;;;2057560;28;44477;-63
2020/12/24 06:08:21;;;;;;;;;;;;;;;;;;2063872;28;44470;-63
2020/12/24 06:09:29;;;;;;;;;;;;;;;;;;2062729;28;44647;-63
2020/12/24 06:10:44;;;;;;;;;;;;;;;;;;2063380;28;44697;-64
2020/12/24 06:11:49;;;;;;;;;;;;;;;;;;2064463;28;44820;-63
2020/12/24 06:12:51;;;;;;;;;;;;;;;;;;2065278;28;42707;-64
2020/12/24 06:13:57;;;;;;;;;;;;;;;;;;2065515;28;42681;-63
2020/12/24 06:15:01;;;;;;;;;;;;;;;;;;2065003;28;43050;-64
2020/12/24 06:16:04;;;;;;;;;;;;;;;;;;2064549;28;45582;-64
2020/12/24 06:17:06;;;;;;;;;;;;;;;;;;2064786;28;45770;-63
2020/12/24 06:18:10;;;;;;;;;;;;;;;;;;2064337;28;45554;-64
2020/12/24 06:19:12;;;;;;;;;;;;;;;;;;2064233;28;44216;-63
2020/12/24 06:20:16;;;;;;;;;;;;;;;;;;2064945;28;44326;-63
2020/12/24 06:21:18;;;;;;;;;;;;;;;;;;2064712;28;44412;-63
2020/12/24 06:22:21;;;;;;;;;;;;;;;;;;2064222;28;44381;-63
2020/12/24 06:23:22;;;;;;;;;;;;;;;;;;2064453;28;44315;-63
2020/12/24 06:24:23;;;;;;;;;;;;;;;;;;2064824;28;44086;-63
2020/12/24 06:25:24;;;;;;;;;;;;;;;;;;2064906;28;45487;-63
2020/12/24 06:26:33;;;;;;;;;;;;;;;;;;2064213;28;45830;-63
2020/12/24 06:27:48;;;;;;;;;;;;;;;;;;2064207;28;43680;-63
2020/12/24 06:28:52;;;;;;;;;;;;;;;;;;2064993;28;44412;-63
2020/12/24 06:30:00;;;;;;;;;;;;;;;;;;2064329;28;44296;-63
2020/12/24 06:31:02;;;;;;;;;;;;;;;;;;2064934;28;44096;-63
2020/12/24 06:32:06;;;;;;;;;;;;;;;;;;2063813;28;45656;-63
2020/12/24 06:33:09;;;;;;;;;;;;;;;;;;2064391;28;42843;-64
2020/12/24 06:34:20;;;;;;;;;;;;;;;;;;2056257;28;44303;-63
2020/12/24 06:35:38;;;;;;;;;;;;;;;;;;2056746;28;45907;-63
2020/12/24 06:36:39;;;;;;;;;;;;;;;;;;2056358;28;45679;-64
2020/12/24 06:37:41;;;;;;;;;;;;;;;;;;2056004;28;43408;-63
2020/12/24 06:38:44;;;;;;;;;;;;;;;;;;2055697;28;45997;-63
2020/12/24 06:39:52;;;;;;;;;;;;;;;;;;2056005;28;46120;-63
2020/12/24 06:40:53;;;;;;;;;;;;;;;;;;2055717;28;46145;-64
2020/12/24 06:41:54;;;;;;;;;;;;;;;;;;2055892;28;44776;-63
2020/12/24 06:42:55;;;;;;;;;;;;;;;;;;2055995;28;44571;-63
2020/12/24 06:43:56;;;;;;;;;;;;;;;;;;2056311;28;46201;-63
2020/12/24 06:44:57;;;;;;;;;;;;;;;;;;2056279;28;45974;-63
2020/12/24 06:45:58;;;;;;;;;;;;;;;;;;2056881;28;46049;-64
2020/12/24 06:46:59;;;;;;;;;;;;;;;;;;2056590;28;43558;-63
2020/12/24 06:48:12;;;;;;;;;;;;;;;;;;2056905;28;43848;-63
2020/12/24 06:49:13;;;;;;;;;;;;;;;;;;2055514;28;46083;-63
2020/12/24 06:50:34;;;;;;;;;;;;;;;;;;2056249;28;46028;-63
2020/12/24 06:51:49;;;;;;;;;;;;;;;;;;2056539;28;47269;-63
2020/12/24 06:52:50;;;;;;;;;;;;;;;;;;2056017;28;44734;-63
2020/12/24 06:53:51;;;;;;;;;;;;;;;;;;2056217;28;45929;-63
2020/12/24 06:55:11;;;;;;;;;;;;;;;;;;2056595;28;44773;-63
2020/12/24 06:56:15;;;;;;;;;;;;;;;;;;2056793;28;44892;-63
2020/12/24 06:57:23;;;;;;;;;;;;;;;;;;2055592;28;44737;-63
2020/12/24 06:58:42;;;;;;;;;;;;;;;;;;2056367;28;46040;-63
2020/12/24 06:59:43;;;;;;;;;;;;;;;;;;2056327;28;44819;-64
2020/12/24 07:00:59;;;;;;;;;;;;;;;;;;2056227;28;45701;-63
2020/12/24 07:02:01;;;;;;;;;;;;;;;;;;2056063;28;43283;-63
2020/12/24 07:03:23;;;;;;;;;;;;;;;;;;2056681;28;42968;-63
2020/12/24 07:04:34;;;;;;;;;;;;;;;;;;2056153;28;44841;-62
2020/12/24 07:05:41;;;;;;;;;;;;;;;;;;2055867;28;43167;-62